sensor_id;sensor_type;location;lat;lon;timestamp;temperature;humidity
68098;DHT22;54886;47.036;15.466;2024-02-26T00:01:35;3.93;74.53
68098;DHT22;54886;47.036;15.466;2024-02-26T00:04:01;3.86;74.78
68098;DHT22;54886;47.036;15.466;2024-02-26T00:06:28;3.78;74.73
68098;DHT22;54886;47.036;15.466;2024-02-26T00:08:53;3.85;75.08
68098;DHT22;54886;47.036;15.466;2024-02-26T00:11:19;3.78;75.03
68098;DHT22;54886;47.036;15.466;2024-02-26T00:13:44;3.76;74.90
68098;DHT22;54886;47.036;15.466;2024-02-26T00:16:09;3.74;74.45
68098;DHT22;54886;47.036;15.466;2024-02-26T00:18:35;3.68;74.73
68098;DHT22;54886;47.036;15.466;2024-02-26T00:21:00;3.59;75.08
68098;DHT22;54886;47.036;15.466;2024-02-26T00:23:26;3.64;74.82
68098;DHT22;54886;47.036;15.466;2024-02-26T00:25:52;3.71;74.82
68098;DHT22;54886;47.036;15.466;2024-02-26T00:28:17;3.59;74.69
68098;DHT22;54886;47.036;15.466;2024-02-26T00:30:45;3.56;74.87
68098;DHT22;54886;47.036;15.466;2024-02-26T00:33:10;3.47;75.36
68098;DHT22;54886;47.036;15.466;2024-02-26T00:35:36;3.41;75.06
68098;DHT22;54886;47.036;15.466;2024-02-26T00:38:01;3.48;75.35
68098;DHT22;54886;47.036;15.466;2024-02-26T00:40:28;3.42;75.33
68098;DHT22;54886;47.036;15.466;2024-02-26T00:42:53;3.42;75.40
68098;DHT22;54886;47.036;15.466;2024-02-26T00:45:19;3.35;75.58
68098;DHT22;54886;47.036;15.466;2024-02-26T00:47:44;3.31;75.68
68098;DHT22;54886;47.036;15.466;2024-02-26T00:50:11;3.37;75.39
68098;DHT22;54886;47.036;15.466;2024-02-26T00:52:36;3.42;74.78
68098;DHT22;54886;47.036;15.466;2024-02-26T00:55:02;3.37;75.02
68098;DHT22;54886;47.036;15.466;2024-02-26T00:57:28;3.38;75.03
68098;DHT22;54886;47.036;15.466;2024-02-26T00:59:53;3.39;75.04
68098;DHT22;54886;47.036;15.466;2024-02-26T01:02:21;3.41;74.95
68098;DHT22;54886;47.036;15.466;2024-02-26T01:04:47;3.34;75.66
68098;DHT22;54886;47.036;15.466;2024-02-26T01:07:12;3.28;75.43
68098;DHT22;54886;47.036;15.466;2024-02-26T01:09:37;3.28;75.38
68098;DHT22;54886;47.036;15.466;2024-02-26T01:12:03;3.21;75.28
68098;DHT22;54886;47.036;15.466;2024-02-26T01:14:29;3.14;75.33
68098;DHT22;54886;47.036;15.466;2024-02-26T01:16:54;3.14;75.63
68098;DHT22;54886;47.036;15.466;2024-02-26T01:19:19;3.21;75.74
68098;DHT22;54886;47.036;15.466;2024-02-26T01:21:45;3.09;75.26
68098;DHT22;54886;47.036;15.466;2024-02-26T01:24:10;2.99;75.85
68098;DHT22;54886;47.036;15.466;2024-02-26T01:26:35;2.95;76.53
68098;DHT22;54886;47.036;15.466;2024-02-26T01:29:01;2.83;76.63
68098;DHT22;54886;47.036;15.466;2024-02-26T01:31:26;2.82;76.26
68098;DHT22;54886;47.036;15.466;2024-02-26T01:33:52;2.79;76.45
68098;DHT22;54886;47.036;15.466;2024-02-26T01:36:17;2.81;76.07
68098;DHT22;54886;47.036;15.466;2024-02-26T01:38:43;2.83;75.92
68098;DHT22;54886;47.036;15.466;2024-02-26T01:41:08;2.86;75.99
68098;DHT22;54886;47.036;15.466;2024-02-26T01:43:34;2.85;76.21
68098;DHT22;54886;47.036;15.466;2024-02-26T01:46:00;2.74;76.60
68098;DHT22;54886;47.036;15.466;2024-02-26T01:48:26;2.81;75.83
68098;DHT22;54886;47.036;15.466;2024-02-26T01:50:52;2.76;75.70
68098;DHT22;54886;47.036;15.466;2024-02-26T01:53:18;2.82;75.43
68098;DHT22;54886;47.036;15.466;2024-02-26T01:55:44;2.81;75.71
68098;DHT22;54886;47.036;15.466;2024-02-26T01:58:10;2.72;76.36
68098;DHT22;54886;47.036;15.466;2024-02-26T02:00:36;2.65;76.49
68098;DHT22;54886;47.036;15.466;2024-02-26T02:03:02;2.64;75.96
68098;DHT22;54886;47.036;15.466;2024-02-26T02:05:28;2.64;75.91
68098;DHT22;54886;47.036;15.466;2024-02-26T02:07:54;2.66;76.28
68098;DHT22;54886;47.036;15.466;2024-02-26T02:10:20;2.68;76.15
68098;DHT22;54886;47.036;15.466;2024-02-26T02:12:50;2.74;76.12
68098;DHT22;54886;47.036;15.466;2024-02-26T02:15:16;2.59;75.98
68098;DHT22;54886;47.036;15.466;2024-02-26T02:17:42;2.64;76.23
68098;DHT22;54886;47.036;15.466;2024-02-26T02:20:17;2.56;76.57
68098;DHT22;54886;47.036;15.466;2024-02-26T02:22:44;2.48;76.67
68098;DHT22;54886;47.036;15.466;2024-02-26T02:25:10;2.45;76.77
68098;DHT22;54886;47.036;15.466;2024-02-26T02:27:35;2.48;76.76
68098;DHT22;54886;47.036;15.466;2024-02-26T02:30:01;2.49;76.45
68098;DHT22;54886;47.036;15.466;2024-02-26T02:32:27;2.47;76.68
68098;DHT22;54886;47.036;15.466;2024-02-26T02:34:54;2.38;77.03
68098;DHT22;54886;47.036;15.466;2024-02-26T02:37:20;2.42;76.95
68098;DHT22;54886;47.036;15.466;2024-02-26T02:39:45;2.42;76.98
68098;DHT22;54886;47.036;15.466;2024-02-26T02:42:11;2.48;76.78
68098;DHT22;54886;47.036;15.466;2024-02-26T02:44:37;2.38;77.14
68098;DHT22;54886;47.036;15.466;2024-02-26T02:47:02;2.40;77.03
68098;DHT22;54886;47.036;15.466;2024-02-26T02:49:28;2.45;76.82
68098;DHT22;54886;47.036;15.466;2024-02-26T02:51:53;2.47;76.84
68098;DHT22;54886;47.036;15.466;2024-02-26T02:54:20;2.44;76.78
68098;DHT22;54886;47.036;15.466;2024-02-26T02:56:45;2.33;76.68
68098;DHT22;54886;47.036;15.466;2024-02-26T02:59:10;2.37;76.74
68098;DHT22;54886;47.036;15.466;2024-02-26T03:01:36;2.21;76.96
68098;DHT22;54886;47.036;15.466;2024-02-26T03:04:01;2.17;77.23
68098;DHT22;54886;47.036;15.466;2024-02-26T03:06:26;2.16;77.41
68098;DHT22;54886;47.036;15.466;2024-02-26T03:08:54;2.17;77.05
68098;DHT22;54886;47.036;15.466;2024-02-26T03:11:19;2.16;77.03
68098;DHT22;54886;47.036;15.466;2024-02-26T03:13:45;2.17;77.01
68098;DHT22;54886;47.036;15.466;2024-02-26T03:16:10;2.11;77.19
68098;DHT22;54886;47.036;15.466;2024-02-26T03:18:38;2.06;77.40
68098;DHT22;54886;47.036;15.466;2024-02-26T03:21:04;2.05;77.04
68098;DHT22;54886;47.036;15.466;2024-02-26T03:23:30;2.07;76.86
68098;DHT22;54886;47.036;15.466;2024-02-26T03:25:57;2.10;76.77
68098;DHT22;54886;47.036;15.466;2024-02-26T03:28:23;2.07;77.30
68098;DHT22;54886;47.036;15.466;2024-02-26T03:30:48;2.09;76.93
68098;DHT22;54886;47.036;15.466;2024-02-26T03:33:14;2.03;76.77
68098;DHT22;54886;47.036;15.466;2024-02-26T03:35:39;1.98;76.91
68098;DHT22;54886;47.036;15.466;2024-02-26T03:38:04;1.93;77.39
68098;DHT22;54886;47.036;15.466;2024-02-26T03:40:30;1.99;77.27
68098;DHT22;54886;47.036;15.466;2024-02-26T03:42:55;1.93;77.29
68098;DHT22;54886;47.036;15.466;2024-02-26T03:45:22;1.98;77.13
68098;DHT22;54886;47.036;15.466;2024-02-26T03:47:48;1.93;77.36
68098;DHT22;54886;47.036;15.466;2024-02-26T03:50:13;1.96;77.45
68098;DHT22;54886;47.036;15.466;2024-02-26T03:52:38;1.96;77.42
68098;DHT22;54886;47.036;15.466;2024-02-26T03:55:04;1.91;77.36
68098;DHT22;54886;47.036;15.466;2024-02-26T03:57:30;1.92;77.42
68098;DHT22;54886;47.036;15.466;2024-02-26T03:59:56;1.89;78.06
68098;DHT22;54886;47.036;15.466;2024-02-26T04:02:21;1.93;77.71
68098;DHT22;54886;47.036;15.466;2024-02-26T04:04:48;1.83;78.22
68098;DHT22;54886;47.036;15.466;2024-02-26T04:07:14;1.81;77.80
68098;DHT22;54886;47.036;15.466;2024-02-26T04:09:39;1.83;77.52
68098;DHT22;54886;47.036;15.466;2024-02-26T04:12:05;1.83;77.37
68098;DHT22;54886;47.036;15.466;2024-02-26T04:14:30;1.85;77.22
68098;DHT22;54886;47.036;15.466;2024-02-26T04:16:56;1.74;77.50
68098;DHT22;54886;47.036;15.466;2024-02-26T04:19:21;1.69;77.63
68098;DHT22;54886;47.036;15.466;2024-02-26T04:21:46;1.65;77.95
68098;DHT22;54886;47.036;15.466;2024-02-26T04:24:12;1.59;78.21
68098;DHT22;54886;47.036;15.466;2024-02-26T04:26:37;1.65;77.60
68098;DHT22;54886;47.036;15.466;2024-02-26T04:29:02;1.68;77.42
68098;DHT22;54886;47.036;15.466;2024-02-26T04:31:28;1.62;77.34
68098;DHT22;54886;47.036;15.466;2024-02-26T04:33:53;1.66;77.20
68098;DHT22;54886;47.036;15.466;2024-02-26T04:36:19;1.58;77.38
68098;DHT22;54886;47.036;15.466;2024-02-26T04:38:44;1.62;77.22
68098;DHT22;54886;47.036;15.466;2024-02-26T04:41:10;1.51;77.43
68098;DHT22;54886;47.036;15.466;2024-02-26T04:43:36;1.48;77.63
68098;DHT22;54886;47.036;15.466;2024-02-26T04:46:07;1.48;77.62
68098;DHT22;54886;47.036;15.466;2024-02-26T04:48:33;1.45;77.64
68098;DHT22;54886;47.036;15.466;2024-02-26T04:50:59;1.41;77.84
68098;DHT22;54886;47.036;15.466;2024-02-26T04:53:24;1.37;77.82
68098;DHT22;54886;47.036;15.466;2024-02-26T04:55:49;1.40;77.81
68098;DHT22;54886;47.036;15.466;2024-02-26T04:58:15;1.41;77.95
68098;DHT22;54886;47.036;15.466;2024-02-26T05:00:40;1.36;78.78
68098;DHT22;54886;47.036;15.466;2024-02-26T05:03:06;1.40;78.32
68098;DHT22;54886;47.036;15.466;2024-02-26T05:05:32;1.44;78.01
68098;DHT22;54886;47.036;15.466;2024-02-26T05:07:58;1.40;78.47
68098;DHT22;54886;47.036;15.466;2024-02-26T05:10:23;1.40;78.48
68098;DHT22;54886;47.036;15.466;2024-02-26T05:12:49;1.37;78.57
68098;DHT22;54886;47.036;15.466;2024-02-26T05:15:14;1.37;78.97
68098;DHT22;54886;47.036;15.466;2024-02-26T05:17:44;1.31;78.84
68098;DHT22;54886;47.036;15.466;2024-02-26T05:20:09;1.28;78.58
68098;DHT22;54886;47.036;15.466;2024-02-26T05:22:35;1.27;78.38
68098;DHT22;54886;47.036;15.466;2024-02-26T05:25:00;1.33;77.91
68098;DHT22;54886;47.036;15.466;2024-02-26T05:27:25;1.37;77.98
68098;DHT22;54886;47.036;15.466;2024-02-26T05:29:51;1.38;78.01
68098;DHT22;54886;47.036;15.466;2024-02-26T05:32:17;1.30;78.22
68098;DHT22;54886;47.036;15.466;2024-02-26T05:34:42;1.26;78.47
68098;DHT22;54886;47.036;15.466;2024-02-26T05:37:07;1.23;79.34
68098;DHT22;54886;47.036;15.466;2024-02-26T05:39:33;1.22;79.91
68098;DHT22;54886;47.036;15.466;2024-02-26T05:41:58;1.23;79.37
68098;DHT22;54886;47.036;15.466;2024-02-26T05:44:26;1.22;80.10
68098;DHT22;54886;47.036;15.466;2024-02-26T05:46:51;1.24;79.52
68098;DHT22;54886;47.036;15.466;2024-02-26T05:49:17;1.19;79.56
68098;DHT22;54886;47.036;15.466;2024-02-26T05:51:42;1.24;79.23
68098;DHT22;54886;47.036;15.466;2024-02-26T05:54:07;1.28;78.77
68098;DHT22;54886;47.036;15.466;2024-02-26T05:56:33;1.24;78.65
68098;DHT22;54886;47.036;15.466;2024-02-26T05:58:59;1.24;78.42
68098;DHT22;54886;47.036;15.466;2024-02-26T06:01:24;1.26;78.12
68098;DHT22;54886;47.036;15.466;2024-02-26T06:03:51;1.27;78.00
68098;DHT22;54886;47.036;15.466;2024-02-26T06:06:16;1.30;78.31
68098;DHT22;54886;47.036;15.466;2024-02-26T06:08:42;1.31;78.57
68098;DHT22;54886;47.036;15.466;2024-02-26T06:11:08;1.31;78.31
68098;DHT22;54886;47.036;15.466;2024-02-26T06:13:34;1.36;78.14
68098;DHT22;54886;47.036;15.466;2024-02-26T06:16:00;1.34;78.59
68098;DHT22;54886;47.036;15.466;2024-02-26T06:18:25;1.33;78.83
68098;DHT22;54886;47.036;15.466;2024-02-26T06:20:51;1.34;78.88
68098;DHT22;54886;47.036;15.466;2024-02-26T06:23:16;1.37;78.79
68098;DHT22;54886;47.036;15.466;2024-02-26T06:25:41;1.40;79.07
68098;DHT22;54886;47.036;15.466;2024-02-26T06:28:08;1.43;79.07
68098;DHT22;54886;47.036;15.466;2024-02-26T06:30:33;1.44;79.17
68098;DHT22;54886;47.036;15.466;2024-02-26T06:32:59;1.47;79.07
68098;DHT22;54886;47.036;15.466;2024-02-26T06:35:25;1.48;79.64
68098;DHT22;54886;47.036;15.466;2024-02-26T06:37:50;1.50;80.55
68098;DHT22;54886;47.036;15.466;2024-02-26T06:40:18;1.54;79.75
68098;DHT22;54886;47.036;15.466;2024-02-26T06:42:44;1.56;79.88
68098;DHT22;54886;47.036;15.466;2024-02-26T06:45:09;1.58;82.10
68098;DHT22;54886;47.036;15.466;2024-02-26T06:47:35;1.61;82.32
68098;DHT22;54886;47.036;15.466;2024-02-26T06:50:01;1.68;82.85
68098;DHT22;54886;47.036;15.466;2024-02-26T06:52:26;1.71;83.11
68098;DHT22;54886;47.036;15.466;2024-02-26T06:54:52;1.76;82.41
68098;DHT22;54886;47.036;15.466;2024-02-26T06:57:19;1.82;82.85
68098;DHT22;54886;47.036;15.466;2024-02-26T06:59:44;1.83;82.99
68098;DHT22;54886;47.036;15.466;2024-02-26T07:02:14;1.89;82.56
68098;DHT22;54886;47.036;15.466;2024-02-26T07:04:41;1.93;83.49
68098;DHT22;54886;47.036;15.466;2024-02-26T07:07:07;1.99;83.49
68098;DHT22;54886;47.036;15.466;2024-02-26T07:09:32;2.05;83.49
68098;DHT22;54886;47.036;15.466;2024-02-26T07:11:58;2.10;83.04
68098;DHT22;54886;47.036;15.466;2024-02-26T07:14:23;2.14;82.89
68098;DHT22;54886;47.036;15.466;2024-02-26T07:16:50;2.20;83.86
68098;DHT22;54886;47.036;15.466;2024-02-26T07:19:15;2.26;82.41
68098;DHT22;54886;47.036;15.466;2024-02-26T07:21:41;2.30;82.60
68098;DHT22;54886;47.036;15.466;2024-02-26T07:24:06;2.36;81.86
68098;DHT22;54886;47.036;15.466;2024-02-26T07:26:32;2.41;82.89
68098;DHT22;54886;47.036;15.466;2024-02-26T07:28:57;2.49;83.54
68098;DHT22;54886;47.036;15.466;2024-02-26T07:31:23;2.54;83.03
68098;DHT22;54886;47.036;15.466;2024-02-26T07:33:48;2.61;83.33
68098;DHT22;54886;47.036;15.466;2024-02-26T07:36:14;2.65;82.91
68098;DHT22;54886;47.036;15.466;2024-02-26T07:38:39;2.74;83.17
68098;DHT22;54886;47.036;15.466;2024-02-26T07:41:04;2.78;84.25
68098;DHT22;54886;47.036;15.466;2024-02-26T07:43:30;2.81;82.85
68098;DHT22;54886;47.036;15.466;2024-02-26T07:45:55;2.86;82.70
68098;DHT22;54886;47.036;15.466;2024-02-26T07:48:21;2.91;83.06
68098;DHT22;54886;47.036;15.466;2024-02-26T07:50:46;2.95;82.83
68098;DHT22;54886;47.036;15.466;2024-02-26T07:53:11;3.10;84.01
68098;DHT22;54886;47.036;15.466;2024-02-26T07:55:37;3.14;83.64
68098;DHT22;54886;47.036;15.466;2024-02-26T07:58:02;3.21;83.58
68098;DHT22;54886;47.036;15.466;2024-02-26T08:00:28;3.26;82.49
68098;DHT22;54886;47.036;15.466;2024-02-26T08:02:53;3.28;82.29
68098;DHT22;54886;47.036;15.466;2024-02-26T08:05:19;3.31;81.87
68098;DHT22;54886;47.036;15.466;2024-02-26T08:07:44;3.37;82.35
68098;DHT22;54886;47.036;15.466;2024-02-26T08:10:10;3.44;82.32
68098;DHT22;54886;47.036;15.466;2024-02-26T08:12:36;3.51;82.41
68098;DHT22;54886;47.036;15.466;2024-02-26T08:15:02;3.58;82.49
68098;DHT22;54886;47.036;15.466;2024-02-26T08:17:27;3.64;82.46
68098;DHT22;54886;47.036;15.466;2024-02-26T08:19:53;3.68;81.77
68098;DHT22;54886;47.036;15.466;2024-02-26T08:22:18;3.72;81.94
68098;DHT22;54886;47.036;15.466;2024-02-26T08:24:44;3.76;81.74
68098;DHT22;54886;47.036;15.466;2024-02-26T08:27:10;3.82;81.59
68098;DHT22;54886;47.036;15.466;2024-02-26T08:29:35;3.92;81.99
68098;DHT22;54886;47.036;15.466;2024-02-26T08:32:01;3.99;81.55
68098;DHT22;54886;47.036;15.466;2024-02-26T08:34:26;4.04;81.54
68098;DHT22;54886;47.036;15.466;2024-02-26T08:36:52;4.11;81.91
68098;DHT22;54886;47.036;15.466;2024-02-26T08:39:17;4.21;82.26
68098;DHT22;54886;47.036;15.466;2024-02-26T08:41:46;4.24;81.30
68098;DHT22;54886;47.036;15.466;2024-02-26T08:44:11;4.31;81.52
68098;DHT22;54886;47.036;15.466;2024-02-26T08:46:37;4.40;80.74
68098;DHT22;54886;47.036;15.466;2024-02-26T08:49:03;4.40;80.93
68098;DHT22;54886;47.036;15.466;2024-02-26T08:51:28;4.45;80.56
68098;DHT22;54886;47.036;15.466;2024-02-26T08:53:54;4.52;80.64
68098;DHT22;54886;47.036;15.466;2024-02-26T08:56:20;4.65;81.21
68098;DHT22;54886;47.036;15.466;2024-02-26T08:58:47;4.68;80.36
68098;DHT22;54886;47.036;15.466;2024-02-26T09:01:14;4.73;79.84
68098;DHT22;54886;47.036;15.466;2024-02-26T09:03:40;4.73;79.42
68098;DHT22;54886;47.036;15.466;2024-02-26T09:06:05;4.79;79.73
68098;DHT22;54886;47.036;15.466;2024-02-26T09:08:32;4.83;79.42
68098;DHT22;54886;47.036;15.466;2024-02-26T09:10:57;4.89;78.79
68098;DHT22;54886;47.036;15.466;2024-02-26T09:13:23;4.92;78.88
68098;DHT22;54886;47.036;15.466;2024-02-26T09:15:48;4.96;79.19
68098;DHT22;54886;47.036;15.466;2024-02-26T09:18:14;4.99;79.46
68098;DHT22;54886;47.036;15.466;2024-02-26T09:20:40;5.09;79.37
68098;DHT22;54886;47.036;15.466;2024-02-26T09:23:06;5.13;79.34
68098;DHT22;54886;47.036;15.466;2024-02-26T09:25:31;5.24;79.10
68098;DHT22;54886;47.036;15.466;2024-02-26T09:27:58;5.32;78.55
68098;DHT22;54886;47.036;15.466;2024-02-26T09:30:24;5.35;78.43
68098;DHT22;54886;47.036;15.466;2024-02-26T09:32:50;5.38;78.17
68098;DHT22;54886;47.036;15.466;2024-02-26T09:35:15;5.47;78.48
68098;DHT22;54886;47.036;15.466;2024-02-26T09:37:41;5.48;77.89
68098;DHT22;54886;47.036;15.466;2024-02-26T09:40:09;5.51;77.18
68098;DHT22;54886;47.036;15.466;2024-02-26T09:42:36;5.58;77.22
68098;DHT22;54886;47.036;15.466;2024-02-26T09:45:05;5.62;76.65
68098;DHT22;54886;47.036;15.466;2024-02-26T09:47:34;5.70;76.28
68098;DHT22;54886;47.036;15.466;2024-02-26T09:50:01;5.77;76.83
68098;DHT22;54886;47.036;15.466;2024-02-26T09:52:28;5.89;76.22
68098;DHT22;54886;47.036;15.466;2024-02-26T09:54:56;5.96;75.77
68098;DHT22;54886;47.036;15.466;2024-02-26T09:57:21;6.03;75.16
68098;DHT22;54886;47.036;15.466;2024-02-26T09:59:51;6.13;75.45
68098;DHT22;54886;47.036;15.466;2024-02-26T10:02:19;6.24;74.77
68098;DHT22;54886;47.036;15.466;2024-02-26T10:04:46;6.28;74.93
68098;DHT22;54886;47.036;15.466;2024-02-26T10:07:13;6.34;74.94
68098;DHT22;54886;47.036;15.466;2024-02-26T10:09:39;6.42;74.62
68098;DHT22;54886;47.036;15.466;2024-02-26T10:12:07;6.45;74.90
68098;DHT22;54886;47.036;15.466;2024-02-26T10:14:33;6.51;74.67
68098;DHT22;54886;47.036;15.466;2024-02-26T10:16:59;6.55;74.35
68098;DHT22;54886;47.036;15.466;2024-02-26T10:19:29;6.64;74.52
68098;DHT22;54886;47.036;15.466;2024-02-26T10:21:59;6.68;73.63
68098;DHT22;54886;47.036;15.466;2024-02-26T10:24:26;6.76;72.46
68098;DHT22;54886;47.036;15.466;2024-02-26T10:26:52;6.92;72.47
68098;DHT22;54886;47.036;15.466;2024-02-26T10:29:19;6.94;71.77
68098;DHT22;54886;47.036;15.466;2024-02-26T10:31:44;6.99;71.44
68098;DHT22;54886;47.036;15.466;2024-02-26T10:34:10;7.10;70.75
68098;DHT22;54886;47.036;15.466;2024-02-26T10:36:36;7.17;71.21
68098;DHT22;54886;47.036;15.466;2024-02-26T10:39:04;7.22;71.19
68098;DHT22;54886;47.036;15.466;2024-02-26T10:41:30;7.36;71.06
68098;DHT22;54886;47.036;15.466;2024-02-26T10:43:58;7.48;69.68
68098;DHT22;54886;47.036;15.466;2024-02-26T10:46:23;7.55;69.97
68098;DHT22;54886;47.036;15.466;2024-02-26T10:48:52;7.66;68.86
68098;DHT22;54886;47.036;15.466;2024-02-26T10:51:28;7.70;69.31
68098;DHT22;54886;47.036;15.466;2024-02-26T10:53:58;7.83;68.45
68098;DHT22;54886;47.036;15.466;2024-02-26T10:56:26;7.82;68.11
68098;DHT22;54886;47.036;15.466;2024-02-26T10:58:55;7.85;68.26
68098;DHT22;54886;47.036;15.466;2024-02-26T11:01:21;7.89;68.29
68098;DHT22;54886;47.036;15.466;2024-02-26T11:03:52;7.96;68.56
68098;DHT22;54886;47.036;15.466;2024-02-26T11:06:21;7.98;67.82
68098;DHT22;54886;47.036;15.466;2024-02-26T11:08:50;8.07;67.00
68098;DHT22;54886;47.036;15.466;2024-02-26T11:11:16;8.08;67.39
68098;DHT22;54886;47.036;15.466;2024-02-26T11:13:43;8.10;67.26
68098;DHT22;54886;47.036;15.466;2024-02-26T11:16:11;8.15;66.44
68098;DHT22;54886;47.036;15.466;2024-02-26T11:18:39;8.18;67.11
68098;DHT22;54886;47.036;15.466;2024-02-26T11:21:07;8.20;67.03
68098;DHT22;54886;47.036;15.466;2024-02-26T11:23:33;8.21;67.52
68098;DHT22;54886;47.036;15.466;2024-02-26T11:26:02;8.31;67.10
68098;DHT22;54886;47.036;15.466;2024-02-26T11:28:30;8.31;67.11
68098;DHT22;54886;47.036;15.466;2024-02-26T11:30:57;8.35;67.96
68098;DHT22;54886;47.036;15.466;2024-02-26T11:33:24;8.44;67.77
68098;DHT22;54886;47.036;15.466;2024-02-26T11:35:53;8.49;68.21
68098;DHT22;54886;47.036;15.466;2024-02-26T11:38:20;8.62;67.38
68098;DHT22;54886;47.036;15.466;2024-02-26T11:40:47;8.66;66.72
68098;DHT22;54886;47.036;15.466;2024-02-26T11:43:13;8.73;66.47
68098;DHT22;54886;47.036;15.466;2024-02-26T11:48:04;8.84;65.95
68098;DHT22;54886;47.036;15.466;2024-02-26T11:50:39;8.90;65.91
68098;DHT22;54886;47.036;15.466;2024-02-26T11:53:27;8.93;66.46
68098;DHT22;54886;47.036;15.466;2024-02-26T11:58:43;8.96;65.34
68098;DHT22;54886;47.036;15.466;2024-02-26T12:01:40;9.00;65.58
68098;DHT22;54886;47.036;15.466;2024-02-26T12:04:08;9.06;65.87
68098;DHT22;54886;47.036;15.466;2024-02-26T12:07:02;9.08;65.58
68098;DHT22;54886;47.036;15.466;2024-02-26T12:09:39;9.13;65.87
68098;DHT22;54886;47.036;15.466;2024-02-26T12:12:06;9.20;65.21
68098;DHT22;54886;47.036;15.466;2024-02-26T12:14:51;9.18;65.92
68098;DHT22;54886;47.036;15.466;2024-02-26T12:17:22;9.20;65.66
68098;DHT22;54886;47.036;15.466;2024-02-26T12:19:48;9.25;65.52
68098;DHT22;54886;47.036;15.466;2024-02-26T12:22:14;9.27;65.81
68098;DHT22;54886;47.036;15.466;2024-02-26T12:24:40;9.30;65.36
68098;DHT22;54886;47.036;15.466;2024-02-26T12:27:05;9.34;65.36
68098;DHT22;54886;47.036;15.466;2024-02-26T12:29:31;9.38;65.75
68098;DHT22;54886;47.036;15.466;2024-02-26T12:31:57;9.45;65.57
68098;DHT22;54886;47.036;15.466;2024-02-26T12:34:23;9.49;65.23
68098;DHT22;54886;47.036;15.466;2024-02-26T12:36:48;9.52;65.31
68098;DHT22;54886;47.036;15.466;2024-02-26T12:39:14;9.59;64.99
68098;DHT22;54886;47.036;15.466;2024-02-26T12:41:40;9.60;64.67
68098;DHT22;54886;47.036;15.466;2024-02-26T12:44:05;9.69;64.17
68098;DHT22;54886;47.036;15.466;2024-02-26T12:46:32;9.75;63.81
68098;DHT22;54886;47.036;15.466;2024-02-26T12:48:58;9.83;63.81
68098;DHT22;54886;47.036;15.466;2024-02-26T12:51:25;9.91;63.58
68098;DHT22;54886;47.036;15.466;2024-02-26T12:53:51;9.91;63.64
68098;DHT22;54886;47.036;15.466;2024-02-26T12:56:18;9.97;62.79
68098;DHT22;54886;47.036;15.466;2024-02-26T12:58:44;10.01;63.70
68098;DHT22;54886;47.036;15.466;2024-02-26T13:01:15;10.07;63.29
68098;DHT22;54886;47.036;15.466;2024-02-26T13:03:42;10.18;61.55
68098;DHT22;54886;47.036;15.466;2024-02-26T13:06:08;10.20;61.21
68098;DHT22;54886;47.036;15.466;2024-02-26T13:08:34;10.22;62.12
68098;DHT22;54886;47.036;15.466;2024-02-26T13:11:00;10.22;61.63
68098;DHT22;54886;47.036;15.466;2024-02-26T13:13:25;10.27;61.96
68098;DHT22;54886;47.036;15.466;2024-02-26T13:16:04;10.35;61.02
68098;DHT22;54886;47.036;15.466;2024-02-26T13:18:30;10.40;60.71
68098;DHT22;54886;47.036;15.466;2024-02-26T13:23:34;10.53;60.31
68098;DHT22;54886;47.036;15.466;2024-02-26T13:25:59;10.55;60.17
68098;DHT22;54886;47.036;15.466;2024-02-26T13:28:25;10.63;59.48
68098;DHT22;54886;47.036;15.466;2024-02-26T13:30:57;10.69;59.33
68098;DHT22;54886;47.036;15.466;2024-02-26T13:33:23;10.72;59.20
68098;DHT22;54886;47.036;15.466;2024-02-26T13:35:49;10.76;59.46
68098;DHT22;54886;47.036;15.466;2024-02-26T13:38:16;10.79;59.16
68098;DHT22;54886;47.036;15.466;2024-02-26T13:40:42;10.79;59.21
68098;DHT22;54886;47.036;15.466;2024-02-26T13:43:07;10.79;58.77
68098;DHT22;54886;47.036;15.466;2024-02-26T13:45:37;10.79;59.38
68098;DHT22;54886;47.036;15.466;2024-02-26T13:48:05;10.80;59.64
68098;DHT22;54886;47.036;15.466;2024-02-26T13:50:30;10.79;59.50
68098;DHT22;54886;47.036;15.466;2024-02-26T13:52:56;10.81;59.39
68098;DHT22;54886;47.036;15.466;2024-02-26T13:55:23;10.83;59.50
68098;DHT22;54886;47.036;15.466;2024-02-26T13:58:00;10.84;59.46
68098;DHT22;54886;47.036;15.466;2024-02-26T14:00:27;10.84;59.55
68098;DHT22;54886;47.036;15.466;2024-02-26T14:02:53;10.83;59.89
68098;DHT22;54886;47.036;15.466;2024-02-26T14:05:19;10.84;59.35
68098;DHT22;54886;47.036;15.466;2024-02-26T14:07:45;10.83;60.28
68098;DHT22;54886;47.036;15.466;2024-02-26T14:10:13;10.81;60.02
68098;DHT22;54886;47.036;15.466;2024-02-26T14:12:39;10.81;60.13
68098;DHT22;54886;47.036;15.466;2024-02-26T14:15:06;10.84;59.15
68098;DHT22;54886;47.036;15.466;2024-02-26T14:17:32;10.86;59.51
68098;DHT22;54886;47.036;15.466;2024-02-26T14:19:57;10.84;59.56
68098;DHT22;54886;47.036;15.466;2024-02-26T14:22:23;10.84;59.71
68098;DHT22;54886;47.036;15.466;2024-02-26T14:24:48;10.87;58.65
68098;DHT22;54886;47.036;15.466;2024-02-26T14:27:14;10.97;57.24
68098;DHT22;54886;47.036;15.466;2024-02-26T14:29:41;10.96;56.59
68098;DHT22;54886;47.036;15.466;2024-02-26T14:32:10;10.94;57.08
68098;DHT22;54886;47.036;15.466;2024-02-26T14:34:36;10.97;57.00
68098;DHT22;54886;47.036;15.466;2024-02-26T14:37:02;10.99;56.00
68098;DHT22;54886;47.036;15.466;2024-02-26T14:39:28;10.94;56.85
68098;DHT22;54886;47.036;15.466;2024-02-26T14:41:54;10.99;55.56
68098;DHT22;54886;47.036;15.466;2024-02-26T14:44:20;10.96;56.02
68098;DHT22;54886;47.036;15.466;2024-02-26T14:46:45;10.96;55.05
68098;DHT22;54886;47.036;15.466;2024-02-26T14:49:11;10.99;54.75
68098;DHT22;54886;47.036;15.466;2024-02-26T14:51:37;10.93;55.87
68098;DHT22;54886;47.036;15.466;2024-02-26T14:54:03;10.93;56.99
68098;DHT22;54886;47.036;15.466;2024-02-26T14:56:28;10.87;57.49
68098;DHT22;54886;47.036;15.466;2024-02-26T14:58:54;10.89;56.16
68098;DHT22;54886;47.036;15.466;2024-02-26T15:01:19;10.87;56.76
68098;DHT22;54886;47.036;15.466;2024-02-26T15:03:45;10.84;57.65
68098;DHT22;54886;47.036;15.466;2024-02-26T15:06:10;10.86;56.73
68098;DHT22;54886;47.036;15.466;2024-02-26T15:08:35;10.84;57.43
68098;DHT22;54886;47.036;15.466;2024-02-26T15:11:02;10.84;56.41
68098;DHT22;54886;47.036;15.466;2024-02-26T15:13:28;10.84;56.42
68098;DHT22;54886;47.036;15.466;2024-02-26T15:15:53;10.79;56.86
68098;DHT22;54886;47.036;15.466;2024-02-26T15:18:19;10.83;56.34
68098;DHT22;54886;47.036;15.466;2024-02-26T15:20:44;10.79;57.50
68098;DHT22;54886;47.036;15.466;2024-02-26T15:23:12;10.77;58.05
68098;DHT22;54886;47.036;15.466;2024-02-26T15:25:37;10.79;56.95
68098;DHT22;54886;47.036;15.466;2024-02-26T15:28:03;10.75;56.71
68098;DHT22;54886;47.036;15.466;2024-02-26T15:30:32;10.73;57.13